createdAt,value
2022-10-27T00:00:02.217Z,100239.95
2022-10-27T00:00:12.303Z,100242.64
2022-10-27T00:00:22.196Z,100242.80
2022-10-27T00:00:32.305Z,100246.45
2022-10-27T00:00:42.257Z,100243.70
2022-10-27T00:00:52.236Z,100244.36
2022-10-27T00:01:02.298Z,100244.02
2022-10-27T00:01:12.302Z,100243.95
2022-10-27T00:01:22.251Z,100244.25
2022-10-27T00:01:32.406Z,100245.58
2022-10-27T00:01:42.292Z,100245.84
2022-10-27T00:01:52.390Z,100248.67
2022-10-27T00:02:02.247Z,100244.75
2022-10-27T00:02:12.202Z,100247.84
2022-10-27T00:02:22.364Z,100245.34
2022-10-27T00:02:32.311Z,100240.87
2022-10-27T00:02:42.443Z,100245.19
2022-10-27T00:02:52.273Z,100249.57
2022-10-27T00:03:02.431Z,100246.62
2022-10-27T00:03:15.202Z,100245.80
2022-10-27T00:03:22.368Z,100248.34
2022-10-27T00:03:32.261Z,100247.42
2022-10-27T00:03:42.231Z,100246.12
2022-10-27T00:03:52.259Z,100251.91
2022-10-27T00:04:02.302Z,100249.42
2022-10-27T00:04:12.220Z,100254.23
2022-10-27T00:04:22.226Z,100250.68
2022-10-27T00:04:32.218Z,100250.59
2022-10-27T00:04:42.261Z,100247.93
2022-10-27T00:04:52.195Z,100250.12
2022-10-27T00:05:02.195Z,100250.03
2022-10-27T00:05:12.233Z,100245.81
2022-10-27T00:05:22.254Z,100246.44
2022-10-27T00:05:32.186Z,100247.31
2022-10-27T00:05:42.257Z,100245.88
2022-10-27T00:05:52.239Z,100242.73
2022-10-27T00:06:02.171Z,100248.61
2022-10-27T00:06:12.181Z,100240.02
2022-10-27T00:06:22.270Z,100236.33
2022-10-27T00:06:32.238Z,100248.45
2022-10-27T00:06:42.223Z,100239.00
2022-10-27T00:06:52.254Z,100242.86
2022-10-27T00:07:02.230Z,100242.09
2022-10-27T00:07:12.223Z,100242.20
2022-10-27T00:07:22.292Z,100243.16
2022-10-27T00:07:32.299Z,100241.21
2022-10-27T00:07:42.195Z,100246.52
2022-10-27T00:07:52.524Z,100245.43
2022-10-27T00:08:02.190Z,100244.28
2022-10-27T00:08:12.236Z,100246.04
2022-10-27T00:08:22.213Z,100246.34
2022-10-27T00:08:32.224Z,100245.19
2022-10-27T00:08:42.221Z,100246.12
2022-10-27T00:08:52.193Z,100246.05
2022-10-27T00:09:02.202Z,100243.56
2022-10-27T00:09:12.220Z,100249.95
2022-10-27T00:09:22.301Z,100247.56
2022-10-27T00:09:32.229Z,100247.46
2022-10-27T00:09:42.286Z,100247.40
2022-10-27T00:09:52.190Z,100247.80
2022-10-27T00:10:02.305Z,100251.53
2022-10-27T00:10:12.218Z,100248.88
2022-10-27T00:10:22.229Z,100253.63
2022-10-27T00:10:32.289Z,100245.73
2022-10-27T00:10:42.188Z,100249.72
2022-10-27T00:10:52.197Z,100246.57
2022-10-27T00:11:02.177Z,100248.34
2022-10-27T00:11:12.243Z,100248.58
2022-10-27T00:11:22.298Z,100254.50
2022-10-27T00:11:32.293Z,100248.85
2022-10-27T00:11:42.243Z,100247.92
2022-10-27T00:11:52.180Z,100250.36
2022-10-27T00:12:02.255Z,100250.36
2022-10-27T00:12:12.268Z,100251.27
2022-10-27T00:12:22.232Z,100251.54
2022-10-27T00:12:32.308Z,100249.88
2022-10-27T00:12:42.254Z,100252.20
2022-10-27T00:12:52.657Z,100250.28
2022-10-27T00:13:02.208Z,100253.38
2022-10-27T00:13:12.287Z,100255.28
2022-10-27T00:13:22.234Z,100252.06
2022-10-27T00:13:32.177Z,100248.57
2022-10-27T00:13:42.194Z,100260.31
2022-10-27T00:13:52.200Z,100251.14
2022-10-27T00:14:02.215Z,100254.31
2022-10-27T00:14:12.171Z,100254.14
2022-10-27T00:14:22.209Z,100250.92
2022-10-27T00:14:32.222Z,100252.44
2022-10-27T00:14:42.190Z,100251.84
2022-10-27T00:14:52.259Z,100252.05
2022-10-27T00:15:02.283Z,100253.05
2022-10-27T00:15:12.301Z,100251.72
2022-10-27T00:15:22.296Z,100249.12
2022-10-27T00:15:32.243Z,100249.59
2022-10-27T00:15:42.302Z,100251.80
2022-10-27T00:15:52.212Z,100252.52
2022-10-27T00:16:02.258Z,100256.69
2022-10-27T00:16:12.249Z,100255.45
2022-10-27T00:16:22.264Z,100253.86
2022-10-27T00:16:32.250Z,100255.30
2022-10-27T00:16:42.266Z,100254.80
2022-10-27T00:16:52.305Z,100255.44
2022-10-27T00:17:02.267Z,100255.61
2022-10-27T00:17:12.263Z,100259.92
2022-10-27T00:17:22.284Z,100255.84
2022-10-27T00:17:32.257Z,100258.06
2022-10-27T00:17:42.169Z,100255.74
2022-10-27T00:17:52.238Z,100257.74
2022-10-27T00:18:02.211Z,100259.97
2022-10-27T00:18:12.264Z,100257.91
2022-10-27T00:18:22.285Z,100260.67
2022-10-27T00:18:32.297Z,100259.02
2022-10-27T00:18:42.171Z,100258.81
2022-10-27T00:18:52.181Z,100261.19
2022-10-27T00:19:02.303Z,100264.41
2022-10-27T00:19:12.202Z,100264.34
2022-10-27T00:19:22.272Z,100261.36
2022-10-27T00:19:32.218Z,100256.16
2022-10-27T00:19:42.229Z,100262.69
2022-10-27T00:19:52.286Z,100260.53
2022-10-27T00:20:12.213Z,100263.48
2022-10-27T00:20:22.258Z,100266.68
2022-10-27T00:20:32.263Z,100266.15
2022-10-27T00:20:42.219Z,100268.31
2022-10-27T00:20:52.250Z,100268.81
2022-10-27T00:21:02.229Z,100268.24
2022-10-27T00:21:12.280Z,100267.68
2022-10-27T00:21:22.253Z,100268.64
2022-10-27T00:21:32.260Z,100263.69
2022-10-27T00:21:42.188Z,100268.84
2022-10-27T00:21:52.235Z,100265.52
2022-10-27T00:22:02.185Z,100266.14
2022-10-27T00:22:12.190Z,100264.52
2022-10-27T00:22:22.181Z,100269.41
2022-10-27T00:22:32.246Z,100270.80
2022-10-27T00:22:42.196Z,100267.91
2022-10-27T00:22:52.693Z,100265.52
2022-10-27T00:23:02.225Z,100271.17
2022-10-27T00:23:12.285Z,100267.17
2022-10-27T00:23:22.226Z,100268.13
2022-10-27T00:23:32.199Z,100267.14
2022-10-27T00:23:42.296Z,100270.83
2022-10-27T00:23:52.245Z,100269.47
2022-10-27T00:24:02.283Z,100266.34
2022-10-27T00:24:12.208Z,100265.58
2022-10-27T00:24:22.246Z,100269.16
2022-10-27T00:24:32.303Z,100265.67
2022-10-27T00:24:42.280Z,100269.16
2022-10-27T00:24:52.289Z,100269.72
2022-10-27T00:25:02.205Z,100270.12
2022-10-27T00:25:12.252Z,100265.07
2022-10-27T00:25:22.235Z,100266.50
2022-10-27T00:25:32.274Z,100264.06
2022-10-27T00:25:42.302Z,100270.05
2022-10-27T00:25:52.191Z,100267.72
2022-10-27T00:26:02.189Z,100268.62
2022-10-27T00:26:12.190Z,100266.23
2022-10-27T00:26:22.238Z,100268.66
2022-10-27T00:26:32.282Z,100266.46
2022-10-27T00:26:42.273Z,100268.38
2022-10-27T00:26:52.241Z,100263.39
2022-10-27T00:27:02.179Z,100270.31
2022-10-27T00:27:12.172Z,100268.48
2022-10-27T00:27:22.301Z,100270.70
2022-10-27T00:27:32.241Z,100268.81
2022-10-27T00:27:42.259Z,100268.88
2022-10-27T00:27:52.282Z,100268.70
2022-10-27T00:28:02.203Z,100268.91
2022-10-27T00:28:12.209Z,100271.48
2022-10-27T00:28:22.304Z,100268.27
2022-10-27T00:28:32.241Z,100267.77
2022-10-27T00:28:42.173Z,100269.55
2022-10-27T00:28:52.215Z,100267.76
2022-10-27T00:29:02.251Z,100266.16
2022-10-27T00:29:12.217Z,100265.23
2022-10-27T00:29:22.232Z,100266.09
2022-10-27T00:29:32.219Z,100268.22
2022-10-27T00:29:42.216Z,100268.08
2022-10-27T00:29:52.231Z,100264.22
2022-10-27T00:30:02.298Z,100269.23
2022-10-27T00:30:12.280Z,100265.42
2022-10-27T00:30:22.264Z,100267.30
2022-10-27T00:30:32.270Z,100265.48
2022-10-27T00:30:42.176Z,100271.19
2022-10-27T00:30:52.207Z,100269.30
2022-10-27T00:31:02.217Z,100268.41
2022-10-27T00:31:12.261Z,100267.50
2022-10-27T00:31:22.310Z,100265.51
2022-10-27T00:31:32.276Z,100264.84
2022-10-27T00:31:42.166Z,100267.62
2022-10-27T00:31:52.298Z,100265.63
2022-10-27T00:32:02.233Z,100266.39
2022-10-27T00:32:12.273Z,100268.95
2022-10-27T00:32:22.180Z,100269.98
2022-10-27T00:32:32.306Z,100267.62
2022-10-27T00:32:42.263Z,100263.17
2022-10-27T00:32:52.531Z,100263.67
2022-10-27T00:33:02.291Z,100269.64
2022-10-27T00:33:12.223Z,100268.32
2022-10-27T00:33:22.189Z,100267.56
2022-10-27T00:33:32.253Z,100266.48
2022-10-27T00:33:42.200Z,100266.95
2022-10-27T00:33:52.175Z,100265.56
2022-10-27T00:34:02.186Z,100266.23
2022-10-27T00:34:12.220Z,100266.96
2022-10-27T00:34:22.273Z,100267.89
2022-10-27T00:34:32.279Z,100269.12
2022-10-27T00:34:42.179Z,100267.50
2022-10-27T00:34:52.250Z,100267.30
2022-10-27T00:35:02.202Z,100266.97
2022-10-27T00:35:12.294Z,100266.34
2022-10-27T00:35:22.213Z,100268.86
2022-10-27T00:35:32.228Z,100268.87
2022-10-27T00:35:42.177Z,100266.31
2022-10-27T00:35:52.262Z,100268.47
2022-10-27T00:36:02.184Z,100271.80
2022-10-27T00:36:12.176Z,100266.05
2022-10-27T00:36:22.276Z,100268.41
2022-10-27T00:36:32.340Z,100269.23
2022-10-27T00:36:52.212Z,100269.47
2022-10-27T00:37:02.209Z,100268.87
2022-10-27T00:37:12.228Z,100268.80
2022-10-27T00:37:22.249Z,100272.20
2022-10-27T00:37:32.209Z,100264.65
2022-10-27T00:37:42.183Z,100268.41
2022-10-27T00:37:52.641Z,100267.20
2022-10-27T00:38:02.171Z,100266.73
2022-10-27T00:38:12.193Z,100267.17
2022-10-27T00:38:22.182Z,100270.30
2022-10-27T00:38:32.262Z,100266.83
2022-10-27T00:38:42.296Z,100268.56
2022-10-27T00:38:52.289Z,100269.89
2022-10-27T00:39:02.201Z,100271.72
2022-10-27T00:39:12.202Z,100266.97
2022-10-27T00:39:22.171Z,100274.84
2022-10-27T00:39:32.277Z,100269.95
2022-10-27T00:39:42.200Z,100272.95
2022-10-27T00:39:52.196Z,100267.97
2022-10-27T00:40:02.301Z,100273.45
2022-10-27T00:40:12.197Z,100273.95
2022-10-27T00:40:22.204Z,100271.66
2022-10-27T00:40:32.197Z,100270.16
2022-10-27T00:40:42.293Z,100276.47
2022-10-27T00:40:52.200Z,100272.78
2022-10-27T00:41:02.243Z,100273.11
2022-10-27T00:41:12.171Z,100275.60
2022-10-27T00:41:22.288Z,100266.66
2022-10-27T00:41:32.308Z,100272.64
2022-10-27T00:41:42.220Z,100275.60
2022-10-27T00:41:52.183Z,100273.30
2022-10-27T00:42:02.203Z,100274.77
2022-10-27T00:42:12.216Z,100271.30
2022-10-27T00:42:22.216Z,100273.96
2022-10-27T00:42:32.366Z,100274.86
2022-10-27T00:42:42.291Z,100275.52
2022-10-27T00:42:52.176Z,100275.78
2022-10-27T00:43:02.231Z,100272.45
2022-10-27T00:43:12.303Z,100277.17
2022-10-27T00:43:22.173Z,100278.91
2022-10-27T00:43:32.298Z,100274.27
2022-10-27T00:43:42.307Z,100275.84
2022-10-27T00:43:52.290Z,100276.23
2022-10-27T00:44:02.237Z,100277.06
2022-10-27T00:44:12.203Z,100276.06
2022-10-27T00:44:22.245Z,100274.17
2022-10-27T00:44:32.275Z,100275.67
2022-10-27T00:44:42.192Z,100275.75
2022-10-27T00:44:52.262Z,100277.77
2022-10-27T00:45:12.225Z,100279.06
2022-10-27T00:45:22.232Z,100277.91
2022-10-27T00:45:32.226Z,100282.43
2022-10-27T00:45:42.290Z,100278.07
2022-10-27T00:45:52.211Z,100277.41
2022-10-27T00:46:02.195Z,100277.94
2022-10-27T00:46:12.283Z,100277.34
2022-10-27T00:46:22.292Z,100279.83
2022-10-27T00:46:32.283Z,100281.72
2022-10-27T00:46:42.250Z,100279.27
2022-10-27T00:46:52.271Z,100277.94
2022-10-27T00:47:02.203Z,100282.22
2022-10-27T00:47:12.296Z,100278.27
2022-10-27T00:47:22.231Z,100282.49
2022-10-27T00:47:32.370Z,100281.89
2022-10-27T00:47:42.206Z,100281.50
2022-10-27T00:47:52.535Z,100280.94
2022-10-27T00:48:02.196Z,100281.66
2022-10-27T00:48:12.305Z,100283.00
2022-10-27T00:48:22.272Z,100279.27
2022-10-27T00:48:32.243Z,100280.77
2022-10-27T00:48:42.244Z,100280.44
2022-10-27T00:48:52.211Z,100279.94
2022-10-27T00:49:02.173Z,100281.27
2022-10-27T00:49:12.217Z,100278.11
2022-10-27T00:49:22.252Z,100285.55
2022-10-27T00:49:32.180Z,100280.59
2022-10-27T00:49:42.299Z,100282.98
2022-10-27T00:49:52.183Z,100282.77
2022-10-27T00:50:02.207Z,100282.27
2022-10-27T00:50:12.243Z,100280.59
2022-10-27T00:50:22.171Z,100278.77
2022-10-27T00:50:32.195Z,100284.89
2022-10-27T00:50:42.218Z,100281.17
2022-10-27T00:50:52.200Z,100282.27
2022-10-27T00:51:02.275Z,100280.77
2022-10-27T00:51:12.291Z,100279.61
2022-10-27T00:51:22.276Z,100285.22
2022-10-27T00:51:32.189Z,100288.24
2022-10-27T00:51:42.261Z,100284.75
2022-10-27T00:51:52.284Z,100282.22
2022-10-27T00:52:02.242Z,100281.39
2022-10-27T00:52:12.251Z,100287.05
2022-10-27T00:52:22.202Z,100285.31
2022-10-27T00:52:32.277Z,100283.81
2022-10-27T00:52:42.171Z,100280.27
2022-10-27T00:52:52.308Z,100279.89
2022-10-27T00:53:02.282Z,100280.83
2022-10-27T00:53:12.325Z,100283.81
2022-10-27T00:53:22.174Z,100285.15
2022-10-27T00:53:32.287Z,100280.66
2022-10-27T00:53:42.290Z,100284.05
2022-10-27T00:53:52.210Z,100283.22
2022-10-27T00:54:02.228Z,100277.60
2022-10-27T00:54:12.287Z,100281.98
2022-10-27T00:54:22.225Z,100280.09
2022-10-27T00:54:32.266Z,100279.16
2022-10-27T00:54:42.262Z,100284.39
2022-10-27T00:54:52.219Z,100279.42
2022-10-27T00:55:02.258Z,100283.81
2022-10-27T00:55:12.266Z,100285.22
2022-10-27T00:55:22.279Z,100281.98
2022-10-27T00:55:32.304Z,100279.83
2022-10-27T00:55:42.287Z,100283.16
2022-10-27T00:55:52.275Z,100281.16
2022-10-27T00:56:02.239Z,100280.77
2022-10-27T00:56:12.215Z,100283.59
2022-10-27T00:56:22.233Z,100282.77
2022-10-27T00:56:32.252Z,100286.82
2022-10-27T00:56:42.188Z,100284.09
2022-10-27T00:56:52.170Z,100283.66
2022-10-27T00:57:02.245Z,100283.83
2022-10-27T00:57:12.188Z,100286.16
2022-10-27T00:57:22.254Z,100286.38
2022-10-27T00:57:32.222Z,100287.22
2022-10-27T00:57:42.199Z,100282.43
2022-10-27T00:57:52.714Z,100286.72
2022-10-27T00:58:02.171Z,100287.31
2022-10-27T00:58:12.197Z,100288.55
2022-10-27T00:58:22.269Z,100292.64
2022-10-27T00:58:32.231Z,100288.25
2022-10-27T00:58:42.310Z,100286.22
2022-10-27T00:58:52.217Z,100288.98
2022-10-27T00:59:02.205Z,100286.16
2022-10-27T00:59:12.227Z,100285.00
2022-10-27T00:59:22.292Z,100289.92
2022-10-27T00:59:32.177Z,100286.50
2022-10-27T00:59:42.282Z,100290.56
2022-10-27T00:59:52.180Z,100287.23
2022-10-27T01:00:02.181Z,100291.92
2022-10-27T01:00:12.193Z,100289.16
2022-10-27T01:00:22.240Z,100290.49
2022-10-27T01:00:32.355Z,100288.60
2022-10-27T01:00:42.389Z,100290.59
2022-10-27T01:00:52.337Z,100288.27
2022-10-27T01:01:02.258Z,100293.95
2022-10-27T01:01:12.345Z,100291.33
2022-10-27T01:01:22.352Z,100288.73
2022-10-27T01:01:32.366Z,100290.50
2022-10-27T01:01:42.308Z,100293.06
2022-10-27T01:01:52.308Z,100291.73
2022-10-27T01:02:02.244Z,100294.12
2022-10-27T01:02:12.253Z,100293.30
2022-10-27T01:02:22.293Z,100288.08
2022-10-27T01:02:32.187Z,100289.68
2022-10-27T01:02:42.218Z,100292.34
2022-10-27T01:02:52.558Z,100294.30
2022-10-27T01:03:02.282Z,100293.17
2022-10-27T01:03:12.240Z,100294.30
2022-10-27T01:03:22.245Z,100294.34
2022-10-27T01:03:32.281Z,100291.85
2022-10-27T01:03:42.205Z,100295.23
2022-10-27T01:03:52.255Z,100294.81
2022-10-27T01:04:02.303Z,100295.64
2022-10-27T01:04:12.282Z,100293.64
2022-10-27T01:04:22.303Z,100289.09
2022-10-27T01:04:32.187Z,100290.92
2022-10-27T01:04:42.249Z,100290.36
2022-10-27T01:04:52.214Z,100293.41
2022-10-27T01:05:02.236Z,100291.09
2022-10-27T01:05:12.301Z,100290.42
2022-10-27T01:05:22.240Z,100291.25
2022-10-27T01:05:32.271Z,100291.92
2022-10-27T01:05:42.182Z,100289.59
2022-10-27T01:05:52.252Z,100291.20
2022-10-27T01:06:02.273Z,100291.16
2022-10-27T01:06:12.289Z,100290.49
2022-10-27T01:06:22.197Z,100287.77
2022-10-27T01:06:32.231Z,100289.43
2022-10-27T01:06:42.282Z,100293.35
2022-10-27T01:06:52.303Z,100291.09
2022-10-27T01:07:02.202Z,100292.09
2022-10-27T01:07:12.256Z,100292.59
2022-10-27T01:07:22.305Z,100288.53
2022-10-27T01:07:32.282Z,100293.64
2022-10-27T01:07:42.265Z,100292.98
2022-10-27T01:07:52.300Z,100288.82
2022-10-27T01:08:02.237Z,100293.17
2022-10-27T01:08:12.192Z,100296.30
2022-10-27T01:08:22.297Z,100293.17
2022-10-27T01:08:32.270Z,100289.58
2022-10-27T01:08:42.294Z,100293.67
2022-10-27T01:08:52.263Z,100290.84
2022-10-27T01:09:02.269Z,100294.30
2022-10-27T01:09:12.263Z,100293.67
2022-10-27T01:09:22.178Z,100293.17
2022-10-27T01:09:32.241Z,100296.00
2022-10-27T01:09:42.272Z,100293.30
2022-10-27T01:09:52.261Z,100294.49
2022-10-27T01:10:02.213Z,100292.06
2022-10-27T01:10:12.173Z,100293.79
2022-10-27T01:10:22.218Z,100295.95
2022-10-27T01:10:32.269Z,100295.22
2022-10-27T01:10:42.202Z,100293.16
2022-10-27T01:10:52.274Z,100290.27
2022-10-27T01:11:02.301Z,100291.22
2022-10-27T01:11:12.233Z,100291.72
2022-10-27T01:11:22.225Z,100295.57
2022-10-27T01:11:32.209Z,100292.48
2022-10-27T01:11:42.211Z,100290.39
2022-10-27T01:11:52.244Z,100288.33
2022-10-27T01:12:02.246Z,100287.06
2022-10-27T01:12:12.229Z,100292.08
2022-10-27T01:12:32.187Z,100290.88
2022-10-27T01:12:42.201Z,100289.88
2022-10-27T01:12:52.700Z,100289.88
2022-10-27T01:13:02.306Z,100292.14
2022-10-27T01:13:12.205Z,100289.70
2022-10-27T01:13:22.190Z,100293.80
2022-10-27T01:13:32.314Z,100290.70
2022-10-27T01:13:42.214Z,100289.20
2022-10-27T01:13:52.221Z,100288.73
2022-10-27T01:14:02.196Z,100292.36
2022-10-27T01:14:12.205Z,100290.20
2022-10-27T01:14:22.259Z,100288.36
2022-10-27T01:14:32.232Z,100285.37
2022-10-27T01:14:42.174Z,100290.12
2022-10-27T01:14:52.176Z,100286.40
2022-10-27T01:15:02.303Z,100293.27
2022-10-27T01:15:12.231Z,100287.80
2022-10-27T01:15:22.304Z,100290.27
2022-10-27T01:15:32.217Z,100290.21
2022-10-27T01:15:42.212Z,100286.45
2022-10-27T01:15:52.234Z,100289.01
2022-10-27T01:16:02.275Z,100289.84
2022-10-27T01:16:12.293Z,100288.38
2022-10-27T01:16:22.237Z,100289.66
2022-10-27T01:16:32.278Z,100291.59
2022-10-27T01:16:42.264Z,100286.44
2022-10-27T01:16:52.217Z,100291.53
2022-10-27T01:17:02.272Z,100287.83
2022-10-27T01:17:12.295Z,100289.70
2022-10-27T01:17:22.178Z,100285.50
2022-10-27T01:17:32.225Z,100285.53
2022-10-27T01:17:42.280Z,100290.41
2022-10-27T01:17:52.281Z,100288.91
2022-10-27T01:18:02.308Z,100290.48
2022-10-27T01:18:12.188Z,100286.98
2022-10-27T01:18:22.300Z,100287.02
2022-10-27T01:18:32.236Z,100296.15
2022-10-27T01:18:42.280Z,100291.16
2022-10-27T01:18:52.271Z,100291.30
2022-10-27T01:19:02.279Z,100288.89
2022-10-27T01:19:12.313Z,100297.47
2022-10-27T01:19:22.201Z,100293.64
2022-10-27T01:19:32.228Z,100295.47
2022-10-27T01:19:42.226Z,100290.72
2022-10-27T01:19:52.279Z,100294.20
2022-10-27T01:20:02.287Z,100296.52
2022-10-27T01:20:12.243Z,100293.12
2022-10-27T01:20:22.174Z,100295.45
2022-10-27T01:20:32.292Z,100294.95
2022-10-27T01:20:42.173Z,100294.92
2022-10-27T01:20:52.190Z,100296.44
2022-10-27T01:21:02.217Z,100299.44
2022-10-27T01:21:12.236Z,100299.00
2022-10-27T01:21:22.271Z,100294.34
2022-10-27T01:21:32.206Z,100295.93
2022-10-27T01:21:42.248Z,100293.40
2022-10-27T01:21:52.313Z,100298.71
2022-10-27T01:22:02.283Z,100296.72
2022-10-27T01:22:12.216Z,100296.59
2022-10-27T01:22:22.293Z,100294.42
2022-10-27T01:22:32.300Z,100293.55
2022-10-27T01:22:42.216Z,100292.76
2022-10-27T01:22:52.733Z,100296.88
2022-10-27T01:23:02.288Z,100295.22
2022-10-27T01:23:12.287Z,100298.07
2022-10-27T01:23:22.268Z,100299.20
2022-10-27T01:23:32.173Z,100298.30
2022-10-27T01:23:42.254Z,100294.55
2022-10-27T01:23:52.218Z,100294.31
2022-10-27T01:24:02.253Z,100297.80
2022-10-27T01:24:12.268Z,100296.41
2022-10-27T01:24:22.271Z,100297.90
2022-10-27T01:24:32.189Z,100293.08
2022-10-27T01:24:42.248Z,100296.73
2022-10-27T01:24:52.191Z,100298.02
2022-10-27T01:25:02.175Z,100297.36
2022-10-27T01:25:12.176Z,100300.55
2022-10-27T01:25:22.249Z,100297.29
2022-10-27T01:25:32.297Z,100300.84
2022-10-27T01:25:42.282Z,100294.47
2022-10-27T01:25:52.188Z,100298.18
2022-10-27T01:26:02.278Z,100296.89
2022-10-27T01:26:12.294Z,100299.61
2022-10-27T01:26:22.283Z,100296.72
2022-10-27T01:26:32.201Z,100299.05
2022-10-27T01:26:42.234Z,100296.84
2022-10-27T01:26:52.276Z,100298.01
2022-10-27T01:27:02.262Z,100297.20
2022-10-27T01:27:12.299Z,100300.50
2022-10-27T01:27:22.200Z,100296.88
2022-10-27T01:27:32.281Z,100296.34
2022-10-27T01:27:42.208Z,100298.09
2022-10-27T01:27:52.255Z,100299.50
2022-10-27T01:28:02.190Z,100298.59
2022-10-27T01:28:12.177Z,100299.59
2022-10-27T01:28:22.272Z,100298.70
2022-10-27T01:28:32.286Z,100301.92
2022-10-27T01:28:42.295Z,100299.43
2022-10-27T01:28:52.193Z,100299.53
2022-10-27T01:29:02.216Z,100299.67
2022-10-27T01:29:12.206Z,100300.99
2022-10-27T01:29:22.185Z,100293.52
2022-10-27T01:29:32.225Z,100297.54
2022-10-27T01:29:42.240Z,100298.01
2022-10-27T01:29:52.174Z,100298.38
2022-10-27T01:30:02.287Z,100295.85
2022-10-27T01:30:12.175Z,100298.05
2022-10-27T01:30:22.198Z,100301.17
2022-10-27T01:30:32.189Z,100302.20
2022-10-27T01:30:42.318Z,100304.93
2022-10-27T01:30:52.258Z,100299.61
2022-10-27T01:31:02.336Z,100302.83
2022-10-27T01:31:12.270Z,100301.84
2022-10-27T01:31:22.185Z,100302.03
2022-10-27T01:31:32.173Z,100302.36
2022-10-27T01:31:45.843Z,100301.16
2022-10-27T01:31:52.315Z,100298.88
2022-10-27T01:32:02.214Z,100299.34
2022-10-27T01:32:12.204Z,100301.53
2022-10-27T01:32:22.191Z,100300.78
2022-10-27T01:32:32.265Z,100299.88
2022-10-27T01:32:42.186Z,100305.36
2022-10-27T01:32:52.476Z,100304.76
2022-10-27T01:33:02.241Z,100306.33
2022-10-27T01:33:12.236Z,100302.84
2022-10-27T01:33:22.232Z,100303.34
2022-10-27T01:33:32.317Z,100300.88
2022-10-27T01:33:42.234Z,100300.95
2022-10-27T01:33:52.170Z,100299.72
2022-10-27T01:34:02.212Z,100300.03
2022-10-27T01:34:12.259Z,100302.52
2022-10-27T01:34:22.290Z,100299.56
2022-10-27T01:34:32.266Z,100297.41
2022-10-27T01:34:42.170Z,100298.64
2022-10-27T01:34:52.265Z,100300.36
2022-10-27T01:35:02.257Z,100304.62
2022-10-27T01:35:12.180Z,100306.11
2022-10-27T01:35:22.263Z,100309.01
2022-10-27T01:35:32.297Z,100301.70
2022-10-27T01:35:42.295Z,100301.23
2022-10-27T01:35:52.245Z,100302.36
2022-10-27T01:36:02.293Z,100301.91
2022-10-27T01:36:12.184Z,100300.86
2022-10-27T01:36:22.261Z,100303.89
2022-10-27T01:36:32.241Z,100299.08
2022-10-27T01:36:42.290Z,100302.20
2022-10-27T01:36:52.282Z,100303.56
2022-10-27T01:37:02.255Z,100300.70
2022-10-27T01:37:12.270Z,100304.62
2022-10-27T01:37:22.260Z,100304.62
2022-10-27T01:37:32.204Z,100304.23
2022-10-27T01:37:42.295Z,100305.69
2022-10-27T01:37:52.212Z,100302.69
2022-10-27T01:38:02.189Z,100305.12
2022-10-27T01:38:12.275Z,100305.45
2022-10-27T01:38:22.287Z,100303.30
2022-10-27T01:38:32.171Z,100302.69
2022-10-27T01:38:42.296Z,100303.36
2022-10-27T01:38:52.211Z,100300.30
2022-10-27T01:39:02.172Z,100299.13
2022-10-27T01:39:12.201Z,100302.45
2022-10-27T01:39:22.257Z,100298.73
2022-10-27T01:39:32.208Z,100298.45
2022-10-27T01:39:42.311Z,100304.38
2022-10-27T01:39:52.211Z,100298.02
2022-10-27T01:40:02.239Z,100301.78
2022-10-27T01:40:12.282Z,100300.11
2022-10-27T01:40:22.171Z,100301.94
2022-10-27T01:40:32.246Z,100302.83
2022-10-27T01:40:42.270Z,100300.94
2022-10-27T01:40:52.202Z,100303.94
2022-10-27T01:41:02.258Z,100303.32
2022-10-27T01:41:12.243Z,100302.66
2022-10-27T01:41:22.272Z,100303.09
2022-10-27T01:41:32.318Z,100299.83
2022-10-27T01:41:52.309Z,100300.20
2022-10-27T01:42:02.248Z,100298.93
2022-10-27T01:42:12.232Z,100299.42
2022-10-27T01:42:22.229Z,100302.64
2022-10-27T01:42:32.272Z,100300.48
2022-10-27T01:42:42.191Z,100302.41
2022-10-27T01:42:52.655Z,100303.89
2022-10-27T01:43:02.241Z,100305.00
2022-10-27T01:43:12.209Z,100301.17
2022-10-27T01:43:22.191Z,100302.12
2022-10-27T01:43:32.255Z,100301.66
2022-10-27T01:43:42.319Z,100296.47
2022-10-27T01:43:52.249Z,100301.72
2022-10-27T01:44:02.296Z,100301.55
2022-10-27T01:44:12.245Z,100298.28
2022-10-27T01:44:22.202Z,100301.47
2022-10-27T01:44:32.212Z,100300.28
2022-10-27T01:44:42.265Z,100300.87
2022-10-27T01:44:52.228Z,100303.12
2022-10-27T01:45:02.316Z,100302.30
2022-10-27T01:45:12.280Z,100301.09
2022-10-27T01:45:22.202Z,100301.59
2022-10-27T01:45:32.204Z,100301.84
2022-10-27T01:45:42.213Z,100300.52
2022-10-27T01:45:52.172Z,100299.86
2022-10-27T01:46:02.284Z,100301.91
2022-10-27T01:46:12.275Z,100298.58
2022-10-27T01:46:22.192Z,100300.78
2022-10-27T01:46:32.181Z,100298.58
2022-10-27T01:46:42.234Z,100299.34
2022-10-27T01:46:52.192Z,100304.39
2022-10-27T01:47:02.245Z,100300.17
2022-10-27T01:47:12.276Z,100302.39
2022-10-27T01:47:22.208Z,100302.42
2022-10-27T01:47:32.197Z,100298.77
2022-10-27T01:47:42.275Z,100303.88
2022-10-27T01:47:52.241Z,100298.56
2022-10-27T01:48:02.281Z,100303.98
2022-10-27T01:48:12.269Z,100300.43
2022-10-27T01:48:22.236Z,100303.42
2022-10-27T01:48:32.214Z,100301.59
2022-10-27T01:48:42.235Z,100300.59
2022-10-27T01:48:52.250Z,100301.98
2022-10-27T01:49:02.246Z,100300.43
2022-10-27T01:49:12.251Z,100300.50
2022-10-27T01:49:22.191Z,100301.09
2022-10-27T01:49:32.297Z,100301.33
2022-10-27T01:49:42.251Z,100298.10
2022-10-27T01:49:52.227Z,100302.25
2022-10-27T01:50:02.196Z,100300.40
2022-10-27T01:50:12.247Z,100300.23
2022-10-27T01:50:22.188Z,100295.28
2022-10-27T01:50:40.279Z,100297.58
2022-10-27T01:50:56.874Z,100295.75
2022-10-27T01:51:02.573Z,100297.94
2022-10-27T01:51:04.680Z,100299.33
2022-10-27T01:51:12.287Z,100298.39
2022-10-27T01:51:22.255Z,100296.94
2022-10-27T01:51:32.192Z,100295.08
2022-10-27T01:51:42.330Z,100299.07
2022-10-27T01:51:52.191Z,100294.18
2022-10-27T01:52:02.274Z,100297.11
2022-10-27T01:52:12.290Z,100295.91
2022-10-27T01:52:22.262Z,100298.77
2022-10-27T01:52:32.290Z,100295.41
2022-10-27T01:52:42.291Z,100297.50
2022-10-27T01:52:52.441Z,100297.40
2022-10-27T01:53:02.279Z,100299.00
2022-10-27T01:53:12.293Z,100290.79
2022-10-27T01:53:22.255Z,100293.25
2022-10-27T01:53:32.272Z,100296.39
2022-10-27T01:53:42.297Z,100297.33
2022-10-27T01:53:52.212Z,100295.00
2022-10-27T01:54:02.205Z,100293.17
2022-10-27T01:54:12.225Z,100291.78
2022-10-27T01:54:22.249Z,100293.41
2022-10-27T01:54:32.282Z,100292.67
2022-10-27T01:54:42.415Z,100294.01
2022-10-27T01:54:52.223Z,100296.50